createdAt,value
2023-01-04T00:02:18.113Z,0.04
2023-01-04T00:05:04.407Z,-0.05
2023-01-04T00:07:50.205Z,-0.28
2023-01-04T00:10:36.037Z,-0.22
2023-01-04T00:13:21.798Z,-0.45
2023-01-04T00:16:11.715Z,-0.27
2023-01-04T00:18:58.071Z,-0.24
2023-01-04T00:21:44.001Z,-0.25
2023-01-04T00:24:30.201Z,-0.34
2023-01-04T00:27:15.678Z,-0.29
2023-01-04T00:30:01.496Z,-0.38
2023-01-04T00:32:46.781Z,-0.36
2023-01-04T00:39:18.272Z,-0.46
2023-01-04T00:42:07.069Z,-0.52
2023-01-04T00:44:52.805Z,-0.70
2023-01-04T00:47:38.534Z,-0.31
2023-01-04T00:50:23.968Z,-0.42
2023-01-04T00:53:10.852Z,-0.49
2023-01-04T00:56:00.637Z,-0.47
2023-01-04T00:58:46.356Z,-0.56
2023-01-04T01:01:33.305Z,-0.51
2023-01-04T01:04:22.537Z,-0.90
2023-01-04T01:07:08.276Z,-0.49
2023-01-04T01:09:54.091Z,-0.45
2023-01-04T01:12:39.394Z,-0.40
2023-01-04T01:15:25.273Z,-0.39
2023-01-04T01:18:10.788Z,-0.79
2023-01-04T01:20:56.871Z,-0.59
2023-01-04T01:23:43.947Z,-0.66
2023-01-04T01:26:29.914Z,-0.49
2023-01-04T01:29:15.421Z,-0.30
2023-01-04T01:32:01.710Z,-0.33
2023-01-04T01:34:47.483Z,-0.24
2023-01-04T01:37:33.460Z,-0.36
2023-01-04T01:40:18.929Z,-0.28
2023-01-04T01:43:06.337Z,-0.15
2023-01-04T01:45:53.995Z,-0.18
2023-01-04T01:48:40.183Z,-0.17
2023-01-04T01:51:26.611Z,-0.17
2023-01-04T01:54:16.230Z,-0.32
2023-01-04T01:57:04.971Z,-0.19
2023-01-04T01:59:51.695Z,0.07
2023-01-04T02:02:37.355Z,0.06
2023-01-04T02:05:24.467Z,0.19
2023-01-04T02:08:10.223Z,0.01
2023-01-04T02:10:56.512Z,0.00
2023-01-04T02:14:01.444Z,0.33
2023-01-04T02:16:57.237Z,0.41
2023-01-04T02:20:15.327Z,0.39
2023-01-04T02:23:25.815Z,0.56
2023-01-04T02:26:17.390Z,0.59
2023-01-04T02:29:17.820Z,0.66
2023-01-04T02:32:40.142Z,0.67
2023-01-04T02:35:42.155Z,0.61
2023-01-04T02:38:33.671Z,0.61
2023-01-04T02:41:34.400Z,0.76
2023-01-04T02:44:52.248Z,0.86
2023-01-04T02:47:57.473Z,0.61
2023-01-04T02:51:26.999Z,0.90
2023-01-04T02:54:19.267Z,0.91
2023-01-04T02:58:02.245Z,0.90
2023-01-04T03:01:15.259Z,0.85
2023-01-04T03:04:57.396Z,0.84
2023-01-04T03:07:54.381Z,0.83
2023-01-04T03:10:49.075Z,0.82
2023-01-04T03:13:40.664Z,0.45
2023-01-04T03:16:26.882Z,0.61
2023-01-04T03:19:14.269Z,0.72
2023-01-04T03:21:59.890Z,0.72
2023-01-04T03:25:04.380Z,0.68
2023-01-04T03:28:09.276Z,0.36
2023-01-04T03:31:19.349Z,0.71
2023-01-04T03:34:23.644Z,0.59
2023-01-04T03:37:24.884Z,0.68
2023-01-04T03:40:36.694Z,0.72
2023-01-04T03:43:56.254Z,0.70
2023-01-04T03:47:11.616Z,0.71
2023-01-04T03:50:05.500Z,0.83
2023-01-04T03:52:52.186Z,0.81
2023-01-04T03:55:39.823Z,0.90
2023-01-04T03:58:26.020Z,0.81
2023-01-04T04:01:12.849Z,0.90
2023-01-04T04:04:17.297Z,0.98
2023-01-04T04:07:22.423Z,0.97
2023-01-04T04:10:08.155Z,0.98
2023-01-04T04:12:54.291Z,1.15
2023-01-04T04:15:40.056Z,1.26
2023-01-04T04:18:25.967Z,1.36
2023-01-04T04:21:28.337Z,1.48
2023-01-04T04:24:19.792Z,1.50
2023-01-04T04:27:05.203Z,1.57
2023-01-04T04:29:51.266Z,1.56
2023-01-04T04:32:37.170Z,1.48
2023-01-04T04:35:23.430Z,1.59
2023-01-04T04:38:08.870Z,1.66
2023-01-04T04:41:13.352Z,1.76
2023-01-04T04:43:58.975Z,1.75
2023-01-04T04:46:45.914Z,1.49
2023-01-04T04:49:32.580Z,1.77
2023-01-04T04:52:19.067Z,1.65
2023-01-04T04:55:05.682Z,1.79
2023-01-04T04:57:52.164Z,1.68
2023-01-04T05:00:40.849Z,1.77
2023-01-04T05:03:27.238Z,1.37
2023-01-04T05:06:13.532Z,1.78
2023-01-04T05:08:59.762Z,1.66
2023-01-04T05:12:03.749Z,1.70
2023-01-04T05:14:49.407Z,1.80
2023-01-04T05:17:34.994Z,1.67
2023-01-04T05:20:20.932Z,1.53
2023-01-04T05:23:07.324Z,1.55
2023-01-04T05:25:55.311Z,1.36
2023-01-04T05:28:41.043Z,1.20
2023-01-04T05:31:26.728Z,1.44
2023-01-04T05:34:15.840Z,1.39
2023-01-04T05:37:04.567Z,1.39
2023-01-04T05:39:50.095Z,1.32
2023-01-04T05:42:36.508Z,1.18
2023-01-04T05:45:22.940Z,0.94
2023-01-04T05:48:08.825Z,1.09
2023-01-04T05:50:54.303Z,1.16
2023-01-04T05:53:39.973Z,1.00
2023-01-04T05:56:25.910Z,0.91
2023-01-04T05:59:12.007Z,1.14
2023-01-04T06:01:58.403Z,0.90
2023-01-04T06:04:44.551Z,1.07
2023-01-04T06:07:30.457Z,1.06
2023-01-04T06:10:16.847Z,0.77
2023-01-04T06:13:02.720Z,1.12
2023-01-04T06:15:47.033Z,1.10
2023-01-04T06:19:23.539Z,1.06
2023-01-04T06:23:18.316Z,1.04
2023-01-04T06:31:48.656Z,0.87
2023-01-04T06:34:34.883Z,0.92
2023-01-04T06:37:20.381Z,0.81
2023-01-04T06:40:06.833Z,0.77
2023-01-04T06:42:52.292Z,0.73
2023-01-04T06:45:38.454Z,0.80
2023-01-04T06:48:24.157Z,0.73
2023-01-04T06:51:10.521Z,0.71
2023-01-04T06:53:56.104Z,0.72
2023-01-04T06:56:42.005Z,0.82
2023-01-04T06:59:27.957Z,0.77
2023-01-04T07:02:15.916Z,0.72
2023-01-04T07:05:02.296Z,0.79
2023-01-04T07:07:48.405Z,0.54
2023-01-04T07:10:34.009Z,0.79
2023-01-04T07:13:19.906Z,0.75
2023-01-04T07:16:05.919Z,0.94
2023-01-04T07:18:51.868Z,0.94
2023-01-04T07:21:37.489Z,0.77
2023-01-04T07:24:29.570Z,0.90
2023-01-04T07:27:16.258Z,0.86
2023-01-04T07:30:02.524Z,0.95
2023-01-04T07:43:43.620Z,1.30
2023-01-04T07:46:29.485Z,1.32
2023-01-04T07:49:17.789Z,1.37
2023-01-04T07:52:04.358Z,1.27
2023-01-04T07:54:57.214Z,1.36
2023-01-04T07:57:43.663Z,1.31
2023-01-04T08:00:29.291Z,1.32
2023-01-04T08:03:15.492Z,1.28
2023-01-04T08:06:12.007Z,1.50
2023-01-04T08:08:49.407Z,1.58
2023-01-04T08:11:35.523Z,1.68
2023-01-04T08:14:21.869Z,1.60
2023-01-04T08:17:07.392Z,1.77
2023-01-04T08:19:53.491Z,1.72
2023-01-04T08:22:39.099Z,1.87
2023-01-04T08:25:24.776Z,2.10
2023-01-04T08:28:10.385Z,1.89
2023-01-04T08:30:59.666Z,2.17
2023-01-04T08:33:45.822Z,2.19
2023-01-04T08:36:34.181Z,2.31
2023-01-04T08:39:21.901Z,2.33
2023-01-04T08:42:19.191Z,2.41
2023-01-04T08:45:08.766Z,2.13
2023-01-04T08:47:54.734Z,2.28
2023-01-04T08:50:40.309Z,2.50
2023-01-04T08:53:27.120Z,2.52
2023-01-04T08:56:14.935Z,2.51
2023-01-04T08:59:01.245Z,2.55
2023-01-04T09:01:47.166Z,2.61
2023-01-04T09:04:33.251Z,2.31
2023-01-04T09:07:18.832Z,2.62
2023-01-04T09:10:05.167Z,2.51
2023-01-04T09:12:51.174Z,2.71
2023-01-04T09:15:37.488Z,2.72
2023-01-04T09:18:32.463Z,2.76
2023-01-04T09:21:21.330Z,2.63
2023-01-04T09:24:07.184Z,2.52
2023-01-04T09:26:55.835Z,2.80
2023-01-04T09:29:41.607Z,2.43
2023-01-04T09:32:27.452Z,3.00
2023-01-04T09:35:12.854Z,2.85
2023-01-04T09:37:59.016Z,3.10
2023-01-04T09:41:01.455Z,3.27
2023-01-04T09:43:59.037Z,2.98
2023-01-04T09:46:52.024Z,3.43
2023-01-04T09:49:43.476Z,2.83
2023-01-04T09:52:52.136Z,3.57
2023-01-04T09:55:41.613Z,3.51
2023-01-04T09:58:39.871Z,3.59
2023-01-04T10:01:33.264Z,3.40
2023-01-04T10:04:29.435Z,3.67
2023-01-04T10:07:25.222Z,3.37
2023-01-04T10:10:23.053Z,3.61
2023-01-04T10:13:30.660Z,3.71
2023-01-04T10:17:11.922Z,3.72
2023-01-04T10:23:18.594Z,3.75
2023-01-04T10:26:14.737Z,3.81
2023-01-04T10:29:26.953Z,3.78
2023-01-04T10:32:20.611Z,3.78
2023-01-04T10:35:22.480Z,3.82
2023-01-04T10:38:17.299Z,3.79
2023-01-04T10:41:21.671Z,3.79
2023-01-04T10:44:18.973Z,3.92
2023-01-04T10:47:10.113Z,3.88
2023-01-04T10:49:58.968Z,3.96
2023-01-04T10:52:51.220Z,3.97
2023-01-04T10:55:39.419Z,4.04
2023-01-04T10:58:31.003Z,4.08
2023-01-04T11:01:30.296Z,4.06
2023-01-04T11:04:36.707Z,4.13
2023-01-04T11:07:37.079Z,3.83
2023-01-04T11:10:40.203Z,4.29
2023-01-04T11:13:26.367Z,3.83
2023-01-04T11:16:11.935Z,4.38
2023-01-04T11:18:58.580Z,4.44
2023-01-04T11:21:52.561Z,4.49
2023-01-04T11:24:38.954Z,4.33
2023-01-04T11:27:27.747Z,4.26
2023-01-04T11:30:16.383Z,4.52
2023-01-04T11:33:21.872Z,4.56
2023-01-04T11:36:09.728Z,4.59
2023-01-04T11:38:56.694Z,4.62
2023-01-04T11:42:02.938Z,4.44
2023-01-04T11:44:59.393Z,4.73
2023-01-04T11:48:02.407Z,4.76
2023-01-04T11:50:51.287Z,4.81
2023-01-04T11:53:37.888Z,4.81
2023-01-04T11:56:24.725Z,4.84
2023-01-04T11:59:24.900Z,4.77
2023-01-04T12:02:59.517Z,4.88
2023-01-04T12:05:32.141Z,4.82
2023-01-04T12:08:34.540Z,4.84
2023-01-04T12:11:29.998Z,4.88
2023-01-04T12:14:21.138Z,4.70
2023-01-04T12:17:38.302Z,4.68
2023-01-04T12:20:28.907Z,4.93
2023-01-04T12:23:15.277Z,4.88
2023-01-04T12:26:01.908Z,4.37
2023-01-04T12:28:50.660Z,4.81
2023-01-04T12:31:36.640Z,4.74
2023-01-04T12:34:22.244Z,4.61
2023-01-04T12:37:08.372Z,4.71
2023-01-04T12:39:54.183Z,4.44
2023-01-04T12:43:14.865Z,4.79
2023-01-04T12:46:50.697Z,4.78
2023-01-04T12:49:39.252Z,4.81
2023-01-04T12:52:48.049Z,4.79
2023-01-04T12:55:31.525Z,4.62
2023-01-04T13:01:36.673Z,4.46
2023-01-04T13:04:41.823Z,4.53
2023-01-04T13:07:31.035Z,4.73
2023-01-04T13:10:26.224Z,4.56
2023-01-04T13:13:26.862Z,4.59
2023-01-04T13:21:16.702Z,4.55
2023-01-04T13:24:22.757Z,4.28
2023-01-04T13:27:13.188Z,4.56
2023-01-04T13:29:59.398Z,4.57
2023-01-04T13:33:24.457Z,4.46
2023-01-04T13:36:02.248Z,4.45
2023-01-04T13:38:48.777Z,4.34
2023-01-04T13:41:35.127Z,4.93
2023-01-04T13:47:57.696Z,4.20
2023-01-04T13:50:49.093Z,4.91
2023-01-04T13:53:35.184Z,4.88
2023-01-04T13:56:24.298Z,4.81
2023-01-04T13:59:10.252Z,4.27
2023-01-04T14:01:57.980Z,4.76
2023-01-04T14:04:46.120Z,4.26
2023-01-04T14:07:35.196Z,4.58
2023-01-04T14:10:26.554Z,4.56
2023-01-04T14:13:20.995Z,4.73
2023-01-04T14:16:14.502Z,5.00
2023-01-04T14:19:27.327Z,4.37
2023-01-04T14:22:38.772Z,5.04
2023-01-04T14:25:31.012Z,4.96
2023-01-04T14:28:20.053Z,5.08
2023-01-04T14:31:12.036Z,5.06
2023-01-04T14:33:58.264Z,5.00
2023-01-04T14:36:44.693Z,4.58
2023-01-04T14:39:33.224Z,4.52
2023-01-04T14:42:27.410Z,4.62
2023-01-04T14:45:14.168Z,4.82
2023-01-04T14:48:00.557Z,4.90
2023-01-04T14:50:46.161Z,4.73
2023-01-04T14:53:32.496Z,4.44
2023-01-04T14:56:19.238Z,4.61
2023-01-04T14:59:07.775Z,4.71
2023-01-04T15:01:54.719Z,5.15
2023-01-04T15:04:41.042Z,4.90
2023-01-04T15:07:36.446Z,4.88
2023-01-04T15:10:26.175Z,4.74
2023-01-04T15:13:11.980Z,4.51
2023-01-04T15:15:58.980Z,5.21
2023-01-04T15:18:47.994Z,5.19
2023-01-04T15:21:40.540Z,4.74
2023-01-04T15:24:27.254Z,5.05
2023-01-04T15:27:13.510Z,4.91
2023-01-04T15:29:59.369Z,4.79
2023-01-04T15:32:45.671Z,4.97
2023-01-04T15:35:32.159Z,5.08
2023-01-04T15:38:20.664Z,5.00
2023-01-04T15:41:36.834Z,4.94
2023-01-04T15:44:31.697Z,5.41
2023-01-04T15:47:30.238Z,4.67
2023-01-04T15:54:49.524Z,5.42
2023-01-04T15:57:44.256Z,5.40
2023-01-04T16:00:42.979Z,5.44
2023-01-04T16:03:34.738Z,5.15
2023-01-04T16:10:07.612Z,5.54
2023-01-04T16:12:56.943Z,5.54
2023-01-04T16:15:42.821Z,5.43
2023-01-04T16:18:32.343Z,5.51
2023-01-04T16:21:21.233Z,5.61
2023-01-04T16:24:29.519Z,5.59
2023-01-04T16:27:15.778Z,5.43
2023-01-04T16:30:02.503Z,5.53
2023-01-04T16:32:50.178Z,5.44
2023-01-04T16:35:36.112Z,5.64
2023-01-04T16:38:21.795Z,5.46
2023-01-04T16:41:10.462Z,5.73
2023-01-04T16:43:59.514Z,5.74
2023-01-04T16:46:45.529Z,5.65
2023-01-04T16:49:32.617Z,5.76
2023-01-04T16:57:56.373Z,5.75
2023-01-04T17:00:43.743Z,5.73
2023-01-04T17:03:29.954Z,5.83
2023-01-04T17:06:24.798Z,5.60
2023-01-04T17:09:13.312Z,5.86
2023-01-04T17:16:20.803Z,5.90
2023-01-04T17:32:46.961Z,5.66
2023-01-04T17:35:58.383Z,5.52
2023-01-04T17:38:51.792Z,5.19
2023-01-04T17:42:40.801Z,5.28
2023-01-04T17:46:55.736Z,5.16
2023-01-04T18:37:49.145Z,6.19
2023-01-04T19:49:17.333Z,6.56
2023-01-04T20:00:19.939Z,6.15
2023-01-04T20:13:23.007Z,5.99
2023-01-04T20:16:56.644Z,5.98
2023-01-04T20:20:22.548Z,6.47
2023-01-04T23:51:02.036Z,7.48
